Macon, Georgia
Current Conditions -  °F | °C
As of 12:53 AM on Wednesday 28 Jan 2015 (Local Time) from KMCN Reporting Station
Clear Clear  
Wind Chill: 31°   Ceiling: Unl
Heat Index: 35°   Visibility: 10mi
Dew Point: 29°   Wind: 5mph
Humidity: 78%   Direction: 300°WNW
Pressure: 30.1"   Gusts: NA
Location:  32.84°N, 83.64°W
Report Text: KMCN 280553Z AUTO 30004KT 10SM CLR 02/M02 A3010 RMK AO2 SLP194 T00171017 10078 20017 51009 TSNO $
Loading
Personal Weather Stations






























Interactive Weather Map New forecast layout! Learn more

10-Day Weather Forecast

Advertisements
Track Severe Weather on mobile